createdAt,value
2022-08-04T00:02:16.666Z,2.78
2022-08-04T00:05:01.636Z,2.50
2022-08-04T00:08:22.254Z,3.00
2022-08-04T00:10:55.144Z,3.10
2022-08-04T00:13:32.753Z,3.13
2022-08-04T00:16:12.382Z,2.92
2022-08-04T00:19:01.565Z,3.20
2022-08-04T00:21:31.461Z,2.97
2022-08-04T00:24:12.201Z,3.22
2022-08-04T00:26:41.561Z,3.47
2022-08-04T00:29:09.144Z,3.50
2022-08-04T00:31:56.403Z,3.75
2022-08-04T00:34:31.472Z,3.30
2022-08-04T00:36:59.594Z,3.70
2022-08-04T00:39:27.981Z,3.95
2022-08-04T00:42:31.401Z,3.42
2022-08-04T00:46:15.743Z,3.70
2022-08-04T00:49:30.116Z,4.97
2022-08-04T00:52:33.762Z,3.60
2022-08-04T00:55:53.310Z,3.88
2022-08-04T00:58:55.460Z,4.15
2022-08-04T01:02:17.555Z,4.10
2022-08-04T01:05:43.676Z,4.20
2022-08-04T01:08:49.520Z,3.50
2022-08-04T01:12:32.313Z,3.22
2022-08-04T01:15:59.884Z,3.30
2022-08-04T01:19:23.164Z,3.50
2022-08-04T01:22:33.418Z,3.45
2022-08-04T01:28:58.407Z,3.67
2022-08-04T01:32:20.998Z,2.50
2022-08-04T01:35:46.464Z,2.97
2022-08-04T01:38:41.025Z,3.00
2022-08-04T01:41:14.998Z,2.63
2022-08-04T01:43:46.692Z,2.33
2022-08-04T01:46:18.074Z,2.55
2022-08-04T01:48:53.603Z,2.38
2022-08-04T01:51:24.517Z,2.58
2022-08-04T01:53:51.904Z,3.08
2022-08-04T01:56:20.811Z,2.40
2022-08-04T01:58:49.388Z,2.13
2022-08-04T02:01:16.784Z,2.55
2022-08-04T02:04:19.434Z,2.30
2022-08-04T02:07:13.615Z,2.33
2022-08-04T02:10:44.478Z,2.20
2022-08-04T02:13:43.926Z,2.35
2022-08-04T02:16:52.437Z,2.10
2022-08-04T02:20:16.099Z,2.20
2022-08-04T02:23:14.513Z,2.03
2022-08-04T02:25:55.749Z,2.40
2022-08-04T02:28:48.547Z,2.25
2022-08-04T02:31:33.368Z,1.75
2022-08-04T02:34:48.820Z,2.60
2022-08-04T02:37:19.997Z,2.25
2022-08-04T02:39:53.020Z,1.92
2022-08-04T02:42:22.645Z,2.55
2022-08-04T02:44:56.912Z,2.45
2022-08-04T02:48:08.096Z,1.92
2022-08-04T02:50:28.576Z,2.00
2022-08-04T02:53:00.585Z,2.45
2022-08-04T02:55:30.491Z,2.17
2022-08-04T02:58:02.045Z,2.38
2022-08-04T03:00:30.389Z,2.50
2022-08-04T03:03:34.499Z,2.60
2022-08-04T03:06:11.384Z,2.80
2022-08-04T03:09:37.497Z,2.50
2022-08-04T03:13:05.192Z,2.30
2022-08-04T03:16:09.781Z,2.20
2022-08-04T03:19:19.587Z,2.20
2022-08-04T03:23:12.536Z,2.10
2022-08-04T03:26:26.501Z,2.20
2022-08-04T03:29:55.385Z,2.20
2022-08-04T03:32:37.346Z,2.20
2022-08-04T03:36:05.795Z,2.05
2022-08-04T03:39:58.665Z,2.50
2022-08-04T03:43:00.045Z,2.40
2022-08-04T03:46:29.724Z,2.58
2022-08-04T03:49:36.459Z,2.40
2022-08-04T03:52:58.808Z,2.17
2022-08-04T03:56:40.232Z,2.20
2022-08-04T04:00:19.635Z,2.45
2022-08-04T04:03:29.135Z,2.67
2022-08-04T04:07:11.384Z,2.38
2022-08-04T04:10:29.022Z,2.63
2022-08-04T04:13:46.154Z,3.15
2022-08-04T04:16:50.821Z,2.67
2022-08-04T04:19:47.856Z,3.00
2022-08-04T04:22:42.200Z,2.90
2022-08-04T04:25:46.893Z,3.03
2022-08-04T04:29:14.342Z,2.92
2022-08-04T04:32:18.692Z,3.00
2022-08-04T04:35:14.472Z,2.88
2022-08-04T04:38:38.197Z,3.38
2022-08-04T04:41:30.790Z,4.28
2022-08-04T04:44:56.004Z,3.45
2022-08-04T04:48:07.384Z,3.20
2022-08-04T04:51:29.509Z,3.03
2022-08-04T04:54:30.705Z,2.78
2022-08-04T04:57:17.889Z,3.15
2022-08-04T05:00:12.215Z,2.88
2022-08-04T05:03:24.022Z,2.88
2022-08-04T05:06:54.637Z,3.33
2022-08-04T05:10:29.311Z,3.33
2022-08-04T05:14:38.055Z,2.95
2022-08-04T05:17:03.188Z,3.30
2022-08-04T05:19:52.176Z,2.97
2022-08-04T05:22:56.428Z,2.97
2022-08-04T05:25:36.176Z,3.17
2022-08-04T05:28:39.625Z,3.67
2022-08-04T05:31:28.365Z,3.33
2022-08-04T05:34:20.370Z,3.55
2022-08-04T05:36:58.835Z,2.83
2022-08-04T05:39:34.618Z,2.65
2022-08-04T05:42:05.044Z,3.10
2022-08-04T05:44:36.859Z,3.10
2022-08-04T05:47:05.438Z,3.43
2022-08-04T05:49:34.733Z,2.88
2022-08-04T05:52:05.028Z,2.42
2022-08-04T05:57:08.586Z,3.05
2022-08-04T05:59:42.806Z,3.80
2022-08-04T06:02:11.411Z,3.63
2022-08-04T06:04:45.267Z,2.72
2022-08-04T06:07:17.109Z,3.50
2022-08-04T06:09:44.914Z,3.67
2022-08-04T06:12:23.332Z,3.38
2022-08-04T06:14:55.119Z,3.72
2022-08-04T06:19:57.202Z,3.55
2022-08-04T06:20:36.387Z,3.30
2022-08-04T06:23:18.561Z,3.10
2022-08-04T06:25:56.908Z,3.22
2022-08-04T06:28:26.268Z,3.22
2022-08-04T06:30:55.419Z,3.45
2022-08-04T06:33:27.808Z,3.22
2022-08-04T06:35:58.268Z,3.42
2022-08-04T06:38:30.032Z,3.35
2022-08-04T06:40:59.160Z,3.25
2022-08-04T06:43:32.440Z,3.58
2022-08-04T06:46:10.842Z,2.90
2022-08-04T06:48:39.505Z,3.60
2022-08-04T06:51:25.333Z,3.47
2022-08-04T06:53:54.837Z,3.45
2022-08-04T06:56:25.076Z,3.90
2022-08-04T07:01:25.731Z,3.20
2022-08-04T07:03:53.409Z,3.15
2022-08-04T07:06:25.457Z,3.63
2022-08-04T07:08:54.390Z,3.00
2022-08-04T07:11:22.236Z,3.03
2022-08-04T07:13:50.353Z,2.95
2022-08-04T07:16:20.684Z,3.08
2022-08-04T07:21:39.486Z,3.75
2022-08-04T07:24:07.252Z,3.00
2022-08-04T07:26:34.954Z,3.28
2022-08-04T07:29:03.030Z,3.13
2022-08-04T07:31:33.736Z,3.03
2022-08-04T07:34:17.786Z,3.33
2022-08-04T07:36:57.851Z,3.20
2022-08-04T07:39:31.510Z,3.00
2022-08-04T07:42:03.569Z,2.70
2022-08-04T07:44:34.935Z,3.20
2022-08-04T07:47:08.277Z,2.70
2022-08-04T07:49:55.656Z,3.20
2022-08-04T07:52:26.233Z,3.20
2022-08-04T07:54:54.528Z,2.97
2022-08-04T07:57:40.162Z,2.88
2022-08-04T08:00:14.270Z,3.10
2022-08-04T08:02:45.723Z,3.13
2022-08-04T08:05:17.876Z,3.65
2022-08-04T08:07:54.506Z,2.85
2022-08-04T08:10:24.247Z,2.90
2022-08-04T08:12:53.703Z,3.50
2022-08-04T08:15:22.381Z,2.83
2022-08-04T08:17:59.657Z,3.10
2022-08-04T08:20:31.888Z,3.05
2022-08-04T08:23:04.384Z,3.50
2022-08-04T08:25:33.778Z,3.30
2022-08-04T08:28:05.192Z,3.07
2022-08-04T08:30:34.686Z,3.00
2022-08-04T08:33:09.449Z,2.83
2022-08-04T08:36:19.835Z,3.08
2022-08-04T08:39:34.835Z,3.08
2022-08-04T08:44:06.034Z,2.90
2022-08-04T08:47:58.512Z,3.25
2022-08-04T08:51:20.231Z,2.63
2022-08-04T08:55:17.984Z,2.83
2022-08-04T08:58:32.470Z,3.10
2022-08-04T09:02:12.429Z,2.20
2022-08-04T09:05:27.129Z,2.35
2022-08-04T09:08:56.189Z,2.22
2022-08-04T09:11:35.149Z,1.63
2022-08-04T09:14:50.310Z,1.77
2022-08-04T09:18:22.655Z,2.20
2022-08-04T09:21:32.190Z,1.90
2022-08-04T09:24:36.240Z,2.28
2022-08-04T09:27:20.741Z,2.10
2022-08-04T09:30:10.455Z,1.70
2022-08-04T09:33:45.006Z,1.90
2022-08-04T09:36:53.594Z,1.70
2022-08-04T09:40:55.153Z,1.73
2022-08-04T09:44:52.475Z,1.80
2022-08-04T09:47:40.354Z,1.60
2022-08-04T09:50:40.022Z,1.63
2022-08-04T09:53:53.769Z,1.63
2022-08-04T09:56:57.189Z,1.70
2022-08-04T10:00:11.253Z,1.63
2022-08-04T10:02:56.400Z,1.30
2022-08-04T10:06:19.350Z,1.48
2022-08-04T10:09:46.405Z,1.77
2022-08-04T10:12:25.214Z,1.33
2022-08-04T10:15:11.653Z,1.13
2022-08-04T10:18:18.352Z,1.73
2022-08-04T10:21:58.988Z,1.20
2022-08-04T10:25:02.225Z,1.13
2022-08-04T10:27:43.421Z,1.50
2022-08-04T10:30:14.688Z,1.70
2022-08-04T10:33:23.609Z,1.30
2022-08-04T10:36:10.730Z,1.15
2022-08-04T10:39:43.378Z,1.63
2022-08-04T10:42:30.759Z,1.38
2022-08-04T10:45:46.848Z,1.40
2022-08-04T10:48:55.468Z,1.50
2022-08-04T10:51:58.004Z,1.27
2022-08-04T10:55:16.020Z,1.25
2022-08-04T10:58:01.013Z,1.47
2022-08-04T11:00:35.729Z,1.15
2022-08-04T11:03:40.809Z,1.20
2022-08-04T11:06:09.844Z,1.23
2022-08-04T11:08:50.597Z,1.73
2022-08-04T11:12:01.691Z,1.20
2022-08-04T11:15:07.703Z,1.50
2022-08-04T11:17:49.518Z,1.55
2022-08-04T11:20:37.015Z,1.27
2022-08-04T11:23:14.131Z,0.93
2022-08-04T11:26:29.165Z,1.23
2022-08-04T11:29:40.618Z,0.90
2022-08-04T11:32:37.657Z,1.20
2022-08-04T11:35:27.885Z,0.82
2022-08-04T11:39:11.363Z,0.95
2022-08-04T11:42:07.929Z,0.88
2022-08-04T11:45:11.208Z,0.83
2022-08-04T11:48:33.718Z,1.20
2022-08-04T11:51:06.858Z,1.33
2022-08-04T11:53:40.699Z,0.90
2022-08-04T11:56:36.680Z,1.17
2022-08-04T11:59:05.867Z,0.88
2022-08-04T12:02:16.694Z,1.17
2022-08-04T12:05:06.181Z,1.10
2022-08-04T12:08:00.128Z,1.13
2022-08-04T12:11:14.420Z,1.40
2022-08-04T12:14:15.384Z,1.00
2022-08-04T12:17:04.805Z,1.63
2022-08-04T12:20:05.141Z,1.15
2022-08-04T12:22:52.734Z,1.10
2022-08-04T12:25:44.904Z,1.20
2022-08-04T12:29:06.883Z,1.00
2022-08-04T12:31:56.884Z,0.98
2022-08-04T12:35:31.981Z,1.10
2022-08-04T12:38:14.444Z,1.40
2022-08-04T12:40:51.936Z,1.15
2022-08-04T12:43:43.019Z,1.50
2022-08-04T12:46:31.421Z,1.02
2022-08-04T12:49:04.571Z,1.00
2022-08-04T12:52:07.779Z,1.05
2022-08-04T12:54:32.196Z,0.90
2022-08-04T12:57:01.361Z,1.17
2022-08-04T12:59:28.881Z,0.85
2022-08-04T13:02:10.616Z,1.27
2022-08-04T13:04:42.701Z,1.13
2022-08-04T13:07:25.501Z,1.00
2022-08-04T13:09:54.293Z,0.98
2022-08-04T13:12:32.355Z,1.10
2022-08-04T13:15:18.714Z,1.00
2022-08-04T13:18:14.824Z,1.10
2022-08-04T13:20:44.849Z,1.10
2022-08-04T13:23:21.514Z,1.15
2022-08-04T13:26:43.533Z,1.33
2022-08-04T13:28:49.724Z,1.20
2022-08-04T13:31:24.621Z,1.05
2022-08-04T13:34:02.793Z,0.93
2022-08-04T13:36:32.742Z,1.00
2022-08-04T13:39:21.821Z,0.80
2022-08-04T13:41:58.922Z,1.10
2022-08-04T13:44:37.177Z,1.20
2022-08-04T13:47:21.568Z,1.08
2022-08-04T13:50:15.830Z,1.20
2022-08-04T13:52:46.345Z,0.98
2022-08-04T13:55:37.265Z,1.40
2022-08-04T13:58:20.378Z,1.00
2022-08-04T14:01:00.541Z,1.05
2022-08-04T14:03:55.805Z,1.05
2022-08-04T14:06:44.861Z,1.17
2022-08-04T14:09:34.933Z,1.20
2022-08-04T14:12:38.086Z,0.93
2022-08-04T14:15:02.426Z,1.38
2022-08-04T14:17:30.784Z,1.30
2022-08-04T14:20:04.472Z,1.00
2022-08-04T14:22:36.964Z,1.30
2022-08-04T14:25:17.838Z,1.25
2022-08-04T14:27:56.609Z,1.10
2022-08-04T14:30:37.895Z,1.20
2022-08-04T14:34:02.510Z,1.40
2022-08-04T14:36:01.633Z,1.15
2022-08-04T14:38:58.389Z,1.00
2022-08-04T14:41:44.598Z,1.20
2022-08-04T14:44:11.936Z,1.20
2022-08-04T14:46:59.188Z,1.20
2022-08-04T14:49:27.600Z,2.03
2022-08-04T14:52:03.043Z,1.40
2022-08-04T14:54:35.309Z,1.05
2022-08-04T14:57:07.585Z,1.50
2022-08-04T15:00:01.664Z,1.27
2022-08-04T15:02:30.878Z,1.30
2022-08-04T15:04:59.212Z,1.42
2022-08-04T15:07:47.523Z,1.30
2022-08-04T15:10:15.690Z,1.30
2022-08-04T15:12:43.329Z,1.33
2022-08-04T15:15:36.035Z,1.40
2022-08-04T15:18:03.686Z,1.52
2022-08-04T15:20:32.556Z,1.05
2022-08-04T15:23:01.365Z,1.70
2022-08-04T15:25:32.929Z,1.25
2022-08-04T15:28:01.695Z,1.38
2022-08-04T15:30:30.667Z,1.42
2022-08-04T15:33:03.033Z,1.30
2022-08-04T15:35:38.708Z,1.48
2022-08-04T15:38:37.392Z,1.27
2022-08-04T15:41:22.455Z,1.23
2022-08-04T15:44:51.280Z,1.17
2022-08-04T15:47:19.074Z,1.70
2022-08-04T15:50:02.072Z,1.65
2022-08-04T15:52:32.036Z,1.42
2022-08-04T15:55:41.326Z,1.50
2022-08-04T15:58:17.123Z,1.17
2022-08-04T16:01:05.022Z,1.65
2022-08-04T16:03:57.999Z,1.55
2022-08-04T16:06:28.802Z,1.60
2022-08-04T16:09:05.293Z,1.52
2022-08-04T16:11:33.892Z,1.35
2022-08-04T16:14:01.412Z,1.40
2022-08-04T16:16:38.428Z,1.50
2022-08-04T16:19:39.581Z,1.48
2022-08-04T16:22:09.921Z,1.40
2022-08-04T16:24:42.767Z,1.40
2022-08-04T16:27:13.752Z,1.50
2022-08-04T16:29:49.461Z,1.40
2022-08-04T16:32:24.381Z,1.30
2022-08-04T16:35:17.869Z,1.50
2022-08-04T16:37:45.373Z,1.63
2022-08-04T16:40:43.552Z,1.38
2022-08-04T16:43:21.029Z,1.73
2022-08-04T16:45:53.893Z,1.50
2022-08-04T16:48:32.589Z,1.20
2022-08-04T16:51:14.423Z,1.75
2022-08-04T16:54:02.899Z,1.30
2022-08-04T16:56:35.327Z,1.40
2022-08-04T16:59:13.177Z,1.42
2022-08-04T17:01:50.822Z,1.48
2022-08-04T17:04:18.420Z,1.50
2022-08-04T17:06:46.809Z,1.73
2022-08-04T17:09:19.583Z,1.63
2022-08-04T17:11:48.483Z,1.50
2022-08-04T17:14:30.360Z,1.60
2022-08-04T17:17:02.164Z,1.70
2022-08-04T17:19:29.615Z,1.55
2022-08-04T17:22:07.236Z,1.60
2022-08-04T17:24:40.929Z,1.95
2022-08-04T17:28:09.679Z,1.80
2022-08-04T17:29:57.641Z,1.70
2022-08-04T17:32:25.373Z,1.67
2022-08-04T17:35:04.076Z,1.60
2022-08-04T17:37:39.315Z,1.30
2022-08-04T17:40:18.689Z,1.52
2022-08-04T17:43:03.188Z,1.58
2022-08-04T17:46:36.941Z,1.65
2022-08-04T17:49:17.909Z,1.38
2022-08-04T17:52:09.979Z,1.42
2022-08-04T17:54:43.290Z,1.63
2022-08-04T17:57:22.082Z,1.60
2022-08-04T17:59:59.329Z,1.30
2022-08-04T18:02:34.769Z,1.90
2022-08-04T18:05:11.328Z,1.95
2022-08-04T18:08:38.951Z,1.70
2022-08-04T18:10:52.302Z,1.95
2022-08-04T18:13:28.768Z,1.63
2022-08-04T18:16:14.583Z,2.00
2022-08-04T18:19:15.338Z,1.60
2022-08-04T18:22:00.457Z,2.03
2022-08-04T18:24:35.004Z,2.10
2022-08-04T18:27:06.208Z,2.35
2022-08-04T18:29:39.041Z,2.00
2022-08-04T18:32:09.730Z,1.85
2022-08-04T18:34:40.781Z,1.83
2022-08-04T18:37:40.804Z,2.10
2022-08-04T18:40:26.801Z,1.92
2022-08-04T18:42:59.988Z,2.08
2022-08-04T18:45:34.493Z,2.33
2022-08-04T18:48:14.539Z,1.95
2022-08-04T18:51:10.419Z,1.60
2022-08-04T18:53:35.090Z,1.33
2022-08-04T18:56:19.890Z,1.27
2022-08-04T18:58:54.348Z,1.40
2022-08-04T19:01:21.744Z,1.20
2022-08-04T19:03:58.099Z,1.45
2022-08-04T19:06:25.889Z,1.27
2022-08-04T19:08:53.665Z,1.45
2022-08-04T19:14:13.149Z,1.50
2022-08-04T19:16:46.017Z,1.58
2022-08-04T19:19:17.249Z,1.30
2022-08-04T19:24:34.553Z,1.52
2022-08-04T19:27:08.261Z,1.10
2022-08-04T19:29:40.636Z,1.40
2022-08-04T19:32:15.089Z,0.98
2022-08-04T19:34:48.409Z,0.93
2022-08-04T19:38:01.825Z,1.30
2022-08-04T19:40:12.309Z,1.50
2022-08-04T19:42:42.324Z,1.60
2022-08-04T19:45:15.973Z,1.50
2022-08-04T19:48:17.257Z,1.50
2022-08-04T19:53:01.150Z,1.27
2022-08-04T19:55:37.205Z,1.55
2022-08-04T19:58:08.962Z,2.17
2022-08-04T20:00:39.408Z,1.70
2022-08-04T20:05:57.481Z,1.63
2022-08-04T20:08:29.912Z,2.00
2022-08-04T20:10:58.185Z,2.17
2022-08-04T20:13:37.427Z,1.67
2022-08-04T20:16:14.916Z,1.40
2022-08-04T20:18:59.525Z,1.80
2022-08-04T20:21:54.094Z,2.00
2022-08-04T20:24:39.861Z,1.90
2022-08-04T20:27:21.729Z,1.80
2022-08-04T20:29:55.591Z,1.70
2022-08-04T20:32:26.817Z,1.58
2022-08-04T20:34:57.573Z,2.00
2022-08-04T20:37:55.401Z,1.75
2022-08-04T20:40:15.369Z,1.98
2022-08-04T20:42:45.437Z,1.52
2022-08-04T20:45:16.478Z,2.10
2022-08-04T20:47:53.261Z,1.67
2022-08-04T20:50:28.392Z,1.85
2022-08-04T20:52:59.015Z,1.92
2022-08-04T20:55:29.501Z,1.90
2022-08-04T20:58:03.002Z,1.65
2022-08-04T21:00:32.036Z,1.88
2022-08-04T21:02:59.971Z,1.50
2022-08-04T21:05:28.341Z,1.50
2022-08-04T21:07:59.193Z,1.80
2022-08-04T21:10:28.069Z,1.85
2022-08-04T21:12:55.640Z,1.70
2022-08-04T21:15:58.381Z,1.80
2022-08-04T21:18:16.837Z,1.80
2022-08-04T21:20:44.583Z,1.75
2022-08-04T21:23:15.588Z,2.08
2022-08-04T21:25:43.519Z,1.98
2022-08-04T21:28:12.516Z,2.10
2022-08-04T21:30:52.931Z,2.05
2022-08-04T21:33:50.238Z,2.50
2022-08-04T21:36:13.904Z,2.42
2022-08-04T21:41:32.877Z,2.97
2022-08-04T21:44:00.718Z,2.80
2022-08-04T21:46:29.965Z,2.45
2022-08-04T21:48:58.364Z,2.65
2022-08-04T21:51:59.018Z,2.95
2022-08-04T21:54:21.313Z,2.97
2022-08-04T21:56:52.259Z,2.40
2022-08-04T21:59:23.729Z,2.38
2022-08-04T22:02:01.227Z,2.45
2022-08-04T22:04:30.930Z,2.10
2022-08-04T22:06:58.469Z,2.20
2022-08-04T22:09:38.752Z,2.28
2022-08-04T22:12:11.765Z,2.38
2022-08-04T22:14:40.273Z,2.20
2022-08-04T22:17:13.630Z,2.33
2022-08-04T22:19:55.840Z,2.17
2022-08-04T22:22:28.967Z,2.00
2022-08-04T22:25:12.345Z,2.10
2022-08-04T22:28:01.016Z,2.20
2022-08-04T22:30:37.699Z,2.30
2022-08-04T22:33:08.822Z,2.53
2022-08-04T22:35:49.054Z,2.33
2022-08-04T22:38:32.752Z,2.30
2022-08-04T22:41:13.642Z,2.13
2022-08-04T22:43:43.537Z,2.35
2022-08-04T22:48:53.444Z,2.35
2022-08-04T22:51:22.992Z,3.17
2022-08-04T22:53:52.986Z,2.47
2022-08-04T22:56:37.394Z,2.40
2022-08-04T22:59:10.279Z,2.35
2022-08-04T23:01:59.584Z,2.53
2022-08-04T23:04:33.194Z,2.70
2022-08-04T23:07:09.238Z,2.20
2022-08-04T23:09:50.122Z,2.00
2022-08-04T23:12:26.229Z,2.08
2022-08-04T23:14:58.707Z,2.30
2022-08-04T23:17:28.574Z,1.95
2022-08-04T23:19:59.609Z,2.33
2022-08-04T23:22:41.271Z,2.97
2022-08-04T23:25:15.530Z,1.70
2022-08-04T23:27:50.549Z,1.80
2022-08-04T23:30:29.833Z,2.08
2022-08-04T23:32:58.467Z,2.30
2022-08-04T23:35:26.363Z,2.13
2022-08-04T23:37:56.037Z,1.80
2022-08-04T23:40:33.727Z,2.05
2022-08-04T23:43:12.200Z,1.90
2022-08-04T23:46:03.856Z,2.08
2022-08-04T23:48:38.881Z,2.03
2022-08-04T23:51:14.260Z,2.15
2022-08-04T23:54:02.335Z,1.90
2022-08-04T23:56:34.589Z,2.00
2022-08-04T23:59:04.240Z,2.30
